Terminal Aerodrome Forecast
Issued by NWS

Home | Current Version | Previous Version | Graphics & Text | Print | Product List | Glossary On
Versions: 1 2 3 4 5 6 7 8 9 10 11 12 13 14 15 16 17 18 19 20 21
000
FTUS42 KMHX 271400 AAB
TAFPGV
TAF AMD
KPGV 271405Z 2714/2812 01009KT P6SM SCT040
      TEMPO 2714/2715 5SM BR BKN008
     FM272300 02005KT P6SM SKC
      AMD LTD TO CLD VIS AND WIND=

USA.gov is the U.S. government's official web portal to all federal, state and local government web resources and services.